Time;durP1;ratioP1;P1;durP2;ratioP2;P2;SDS_P1;SDS_P2;PMS_P1;PMS_P2;Temp;Humidity;BMP_temperature;BMP_pressure;BME280_temperature;BME280_humidity;BME280_pressure;Samples;Min_cycle;Max_cycle;Signal;HPM_P1;HPM_P2
2023/01/16 00:01:53;;;;;;;5.65;1.70;;;3.60;99.90;;;;;;5076642;28;20432;-79
2023/01/16 00:04:18;;;;;;;5.07;1.48;;;3.70;99.90;;;;;;5077246;28;20036;-79
2023/01/16 00:06:44;;;;;;;3.58;2.03;;;3.60;99.90;;;;;;5041427;28;20098;-79
2023/01/16 00:09:10;;;;;;;3.67;1.73;;;3.60;99.90;;;;;;5075381;28;20036;-79
2023/01/16 00:11:35;;;;;;;4.13;1.90;;;3.60;99.90;;;;;;5082079;28;20451;-80
2023/01/16 00:14:01;;;;;;;3.20;1.58;;;3.60;99.90;;;;;;5062602;28;20040;-78
2023/01/16 00:16:27;;;;;;;4.38;1.67;;;3.70;99.90;;;;;;5092194;28;20068;-78
2023/01/16 00:18:53;;;;;;;4.43;2.10;;;3.80;99.90;;;;;;5086875;28;20075;-78
2023/01/16 00:21:19;;;;;;;3.22;1.23;;;3.80;99.90;;;;;;5087545;28;20040;-77
2023/01/16 00:23:46;;;;;;;3.58;1.35;;;3.90;99.90;;;;;;5088915;28;20032;-78
2023/01/16 00:26:12;;;;;;;4.30;1.65;;;4.00;99.90;;;;;;5084965;28;20049;-79
2023/01/16 00:28:39;;;;;;;4.82;1.52;;;4.00;99.90;;;;;;5078582;28;20035;-77
2023/01/16 00:31:05;;;;;;;3.05;1.85;;;4.10;99.90;;;;;;5071484;28;20048;-79
2023/01/16 00:33:34;;;;;;;3.25;1.65;;;4.10;99.90;;;;;;5084131;28;20054;-79
2023/01/16 00:36:01;;;;;;;2.67;1.45;;;4.10;99.90;;;;;;5064500;28;20052;-79
2023/01/16 00:38:26;;;;;;;3.53;1.35;;;4.20;99.90;;;;;;5077510;28;20139;-79
2023/01/16 00:40:52;;;;;;;4.68;1.50;;;4.20;99.90;;;;;;5087200;28;20579;-80
2023/01/16 00:43:18;;;;;;;5.82;2.00;;;4.10;99.90;;;;;;5082008;28;20048;-79
2023/01/16 00:45:44;;;;;;;4.95;1.58;;;4.20;99.90;;;;;;5075589;28;20063;-80
2023/01/16 00:48:09;;;;;;;2.85;1.20;;;4.10;99.90;;;;;;5087687;28;20100;-79
2023/01/16 00:50:35;;;;;;;2.90;1.42;;;4.10;99.90;;;;;;5083096;28;20082;-80
2023/01/16 00:53:01;;;;;;;3.63;1.60;;;4.10;99.90;;;;;;5078991;28;20045;-80
2023/01/16 00:55:26;;;;;;;2.35;1.20;;;4.00;99.90;;;;;;5075200;28;20036;-78
2023/01/16 00:57:52;;;;;;;2.58;1.42;;;4.10;99.90;;;;;;5062587;28;20041;-80
2023/01/16 01:00:21;;;;;;;2.95;1.45;;;4.10;99.90;;;;;;5061533;28;20105;-79
2023/01/16 01:02:48;;;;;;;3.42;1.42;;;4.10;99.90;;;;;;5082481;28;20049;-79
2023/01/16 01:05:14;;;;;;;4.40;1.55;;;4.10;99.90;;;;;;5082861;28;20048;-79
2023/01/16 01:07:40;;;;;;;2.65;1.10;;;4.10;99.90;;;;;;5075180;28;20158;-79
2023/01/16 01:10:06;;;;;;;2.03;1.25;;;4.10;99.90;;;;;;5083913;28;20062;-80
2023/01/16 01:12:31;;;;;;;3.47;1.38;;;4.10;99.90;;;;;;5079862;28;20050;-78
2023/01/16 01:14:57;;;;;;;3.92;1.25;;;4.10;99.90;;;;;;5082402;28;20048;-79
2023/01/16 01:17:23;;;;;;;2.10;1.40;;;4.10;99.90;;;;;;5086669;28;20055;-78
2023/01/16 01:19:49;;;;;;;3.88;1.17;;;4.10;99.90;;;;;;5059882;28;20116;-79
2023/01/16 01:22:15;;;;;;;2.33;1.20;;;4.10;99.90;;;;;;5077996;28;20045;-79
2023/01/16 01:24:42;;;;;;;2.97;1.63;;;4.10;99.90;;;;;;5081219;28;20104;-79
2023/01/16 01:27:07;;;;;;;5.57;1.55;;;4.20;99.90;;;;;;5085555;28;20063;-79
2023/01/16 01:29:33;;;;;;;4.20;1.42;;;4.20;99.90;;;;;;5058045;28;20048;-79
2023/01/16 01:32:00;;;;;;;3.97;1.13;;;4.30;99.90;;;;;;5089367;28;20051;-79
2023/01/16 01:34:26;;;;;;;2.83;1.20;;;4.30;99.90;;;;;;5090093;28;20036;-80
2023/01/16 01:36:51;;;;;;;4.03;1.30;;;4.30;99.90;;;;;;5080117;28;20048;-79
2023/01/16 01:39:17;;;;;;;3.55;1.10;;;4.40;99.90;;;;;;5081100;28;20052;-78
2023/01/16 01:41:43;;;;;;;3.75;1.20;;;4.40;99.90;;;;;;5078840;28;20336;-79
2023/01/16 01:45:03;;;;;;;2.83;1.10;;;4.50;99.90;;;;;;5080242;28;20044;-78
2023/01/16 01:47:37;;;;;;;3.47;1.00;;;4.50;99.90;;;;;;5043627;28;20045;-79
2023/01/16 01:50:22;;;;;;;4.00;1.20;;;4.50;99.90;;;;;;5088294;28;20071;-80
2023/01/16 01:52:48;;;;;;;4.82;2.05;;;4.60;99.90;;;;;;5086837;28;20469;-78
2023/01/16 01:55:15;;;;;;;3.55;1.58;;;4.60;99.90;;;;;;5089133;28;20040;-80
2023/01/16 01:57:47;;;;;;;2.45;1.17;;;4.50;99.90;;;;;;5086837;28;20052;-78
2023/01/16 02:00:24;;;;;;;3.28;1.20;;;4.50;99.90;;;;;;5058436;28;20136;-82
2023/01/16 02:03:01;;;;;;;4.05;1.60;;;4.50;99.90;;;;;;5086712;28;20131;-78
2023/01/16 02:05:35;;;;;;;3.92;1.40;;;4.50;99.90;;;;;;5086285;28;20049;-78
2023/01/16 02:08:03;;;;;;;5.15;1.65;;;4.50;99.90;;;;;;5081499;28;20090;-77
2023/01/16 02:10:41;;;;;;;4.82;1.40;;;4.50;99.90;;;;;;5080948;28;20049;-77
2023/01/16 02:13:07;;;;;;;4.28;1.08;;;4.50;99.90;;;;;;5066569;28;20040;-77
2023/01/16 02:15:34;;;;;;;2.90;1.50;;;4.50;99.90;;;;;;5080630;28;20048;-77
2023/01/16 02:21:24;;;;;;;4.60;1.65;;;4.50;99.90;;;;;;5090790;28;20368;-80
2023/01/16 02:24:31;;;;;;;3.35;1.30;;;4.50;99.90;;;;;;5053721;28;20557;-77
2023/01/16 02:27:17;;;;;;;2.88;1.40;;;4.50;99.90;;;;;;5088578;28;20131;-78
2023/01/16 02:30:09;;;;;;;3.90;1.30;;;4.50;99.90;;;;;;5081330;28;20056;-79
2023/01/16 02:32:37;;;;;;;4.57;1.70;;;4.50;99.90;;;;;;5062259;28;20040;-78
2023/01/16 02:35:30;;;;;;;2.67;1.33;;;4.60;99.90;;;;;;5062271;28;20078;-78
2023/01/16 02:38:05;;;;;;;3.40;1.38;;;4.60;99.90;;;;;;5077018;28;20053;-77
2023/01/16 02:40:45;;;;;;;4.95;1.65;;;4.50;99.90;;;;;;5085488;28;20045;-77
2023/01/16 02:43:32;;;;;;;2.47;1.33;;;4.50;99.90;;;;;;5090339;28;20060;-77
2023/01/16 02:46:03;;;;;;;3.25;1.25;;;4.50;99.90;;;;;;5096425;28;20116;-81
2023/01/16 02:48:50;;;;;;;5.95;2.00;;;4.50;99.90;;;;;;5079532;28;20045;-79
2023/01/16 02:51:56;;;;;;;3.08;1.23;;;4.50;99.90;;;;;;5078246;28;20056;-79
2023/01/16 02:54:33;;;;;;;3.95;1.42;;;4.50;99.90;;;;;;5057696;28;20086;-79
2023/01/16 02:57:12;;;;;;;3.58;1.27;;;4.40;99.90;;;;;;5094404;28;20048;-78
2023/01/16 02:59:41;;;;;;;3.40;1.50;;;4.40;99.90;;;;;;5084479;28;20078;-79
2023/01/16 03:02:08;;;;;;;3.58;1.40;;;4.40;99.90;;;;;;5086638;28;20073;-79
2023/01/16 03:04:44;;;;;;;3.55;1.52;;;4.50;99.90;;;;;;5084738;28;20040;-79
2023/01/16 03:07:38;;;;;;;4.75;1.50;;;4.50;99.90;;;;;;5085054;28;20078;-79
2023/01/16 03:10:15;;;;;;;2.50;1.30;;;4.40;99.90;;;;;;5073942;28;21510;-78
2023/01/16 03:13:04;;;;;;;5.30;1.52;;;4.40;99.90;;;;;;5063389;28;20052;-77
2023/01/16 03:15:54;;;;;;;3.42;1.60;;;4.40;99.90;;;;;;5082865;28;20069;-79
2023/01/16 03:18:40;;;;;;;2.97;1.80;;;4.30;99.90;;;;;;5078845;28;20044;-78
2023/01/16 03:21:25;;;;;;;2.85;1.30;;;4.20;99.90;;;;;;5077652;28;20189;-77
2023/01/16 03:23:55;;;;;;;3.97;1.60;;;4.10;99.90;;;;;;5064452;28;20600;-78
2023/01/16 03:26:42;;;;;;;5.82;1.88;;;4.10;99.90;;;;;;5078109;28;20055;-79
2023/01/16 03:29:29;;;;;;;4.30;1.83;;;4.10;99.90;;;;;;5088508;28;20083;-79
2023/01/16 03:32:09;;;;;;;3.15;1.73;;;4.10;99.90;;;;;;5079597;28;20481;-79
2023/01/16 03:34:44;;;;;;;3.85;2.33;;;4.20;99.90;;;;;;5098047;28;20047;-80
2023/01/16 03:37:21;;;;;;;4.35;2.10;;;4.20;99.90;;;;;;5085696;28;20060;-78
2023/01/16 03:39:51;;;;;;;4.95;1.58;;;4.30;99.90;;;;;;5078394;28;20100;-79
2023/01/16 03:42:45;;;;;;;4.95;1.88;;;4.40;99.90;;;;;;5076134;28;20068;-78
2023/01/16 03:45:21;;;;;;;4.03;2.03;;;4.40;99.90;;;;;;5080922;28;20048;-78
2023/01/16 03:47:49;;;;;;;;;;;4.40;99.90;;;;;;5093929;28;20098;-79
2023/01/16 03:50:20;;;;;;;2.83;1.77;;;4.40;99.90;;;;;;5096720;28;19923;-79
2023/01/16 03:52:51;;;;;;;3.60;2.35;;;4.40;99.90;;;;;;5091894;28;20040;-78
2023/01/16 03:55:46;;;;;;;3.97;2.20;;;4.40;99.90;;;;;;5088781;28;20040;-78
2023/01/16 03:58:22;;;;;;;4.00;2.50;;;4.40;99.90;;;;;;5029983;28;20416;-80
2023/01/16 04:00:57;;;;;;;4.25;2.20;;;4.40;99.90;;;;;;5076268;28;20089;-79
2023/01/16 04:03:29;;;;;;;3.75;2.70;;;4.40;99.90;;;;;;5069341;28;20100;-79
2023/01/16 04:06:08;;;;;;;4.22;2.58;;;4.40;99.90;;;;;;5083321;28;20055;-81
2023/01/16 04:08:38;;;;;;;3.88;2.60;;;4.30;99.90;;;;;;5065370;28;20047;-80
2023/01/16 04:11:05;;;;;;;4.07;2.95;;;4.30;99.90;;;;;;5078476;28;20117;-81
2023/01/16 04:13:39;;;;;;;3.85;3.10;;;4.30;99.90;;;;;;5085491;28;20079;-81
2023/01/16 04:16:09;;;;;;;5.97;4.10;;;4.30;99.90;;;;;;5075548;28;20056;-80
2023/01/16 04:18:36;;;;;;;5.70;3.80;;;4.20;99.90;;;;;;5077957;28;20091;-79
2023/01/16 04:21:06;;;;;;;6.35;3.80;;;4.20;99.90;;;;;;5059492;28;20131;-77
2023/01/16 04:23:33;;;;;;;5.82;3.95;;;4.20;99.90;;;;;;5091922;28;20055;-78
2023/01/16 04:25:59;;;;;;;7.20;4.07;;;4.20;99.90;;;;;;5087482;28;20503;-78
2023/01/16 04:28:25;;;;;;;5.70;3.92;;;4.20;99.90;;;;;;5077576;28;20476;-79
2023/01/16 04:30:51;;;;;;;6.05;4.28;;;4.20;99.90;;;;;;5083916;28;20078;-80
2023/01/16 04:33:17;;;;;;;8.23;4.50;;;4.20;99.90;;;;;;5082421;28;20072;-78
2023/01/16 04:35:42;;;;;;;7.78;4.90;;;4.20;99.90;;;;;;5077859;28;20036;-79
2023/01/16 04:38:08;;;;;;;7.68;4.70;;;4.20;99.90;;;;;;5072890;28;20344;-79
2023/01/16 04:40:34;;;;;;;7.50;4.38;;;4.20;99.90;;;;;;5077847;28;20045;-78
2023/01/16 04:43:00;;;;;;;7.90;5.30;;;4.20;99.90;;;;;;5083132;28;20053;-79
2023/01/16 04:45:25;;;;;;;9.23;5.43;;;4.20;99.90;;;;;;5076053;28;20135;-79
2023/01/16 04:47:52;;;;;;;8.80;5.35;;;4.30;99.90;;;;;;5076331;28;20072;-81
2023/01/16 04:50:18;;;;;;;7.93;5.28;;;4.10;99.90;;;;;;5073732;28;20419;-80
2023/01/16 04:52:45;;;;;;;8.50;4.03;;;4.10;99.90;;;;;;5077745;28;20434;-80
2023/01/16 04:55:10;;;;;;;9.25;4.97;;;4.10;99.90;;;;;;5058708;28;20052;-77
2023/01/16 04:57:36;;;;;;;8.98;4.78;;;4.10;99.90;;;;;;5078558;28;20408;-80
2023/01/16 05:00:04;;;;;;;6.82;5.15;;;4.20;99.90;;;;;;5076301;28;20116;-78
2023/01/16 05:02:30;;;;;;;8.52;4.85;;;4.00;99.90;;;;;;5082187;28;20039;-78
2023/01/16 05:04:55;;;;;;;9.15;5.10;;;4.10;99.90;;;;;;5096470;28;20655;-78
2023/01/16 05:07:21;;;;;;;5.35;4.00;;;4.10;99.90;;;;;;5075731;28;20036;-80
2023/01/16 05:09:47;;;;;;;6.38;4.03;;;4.00;99.90;;;;;;5076068;28;20080;-80
2023/01/16 05:12:12;;;;;;;8.00;4.60;;;3.90;99.90;;;;;;5066006;28;20045;-79
2023/01/16 05:14:38;;;;;;;6.68;3.55;;;3.80;99.90;;;;;;5078858;28;20049;-80
2023/01/16 05:17:04;;;;;;;6.40;3.97;;;3.80;99.90;;;;;;5086608;28;20104;-79
2023/01/16 05:19:29;;;;;;;5.70;3.80;;;3.70;99.90;;;;;;5082056;28;20044;-79
2023/01/16 05:21:55;;;;;;;5.70;3.40;;;3.60;99.90;;;;;;5080387;28;20071;-79
2023/01/16 05:24:21;;;;;;;9.50;4.10;;;3.60;99.90;;;;;;5089847;28;20105;-80
2023/01/16 05:26:46;;;;;;;8.82;4.03;;;3.70;99.90;;;;;;5063994;28;20392;-79
2023/01/16 05:29:12;;;;;;;6.32;3.55;;;3.50;99.90;;;;;;5078748;28;20397;-78
2023/01/16 05:31:38;;;;;;;6.88;3.63;;;3.40;99.90;;;;;;5096829;28;20124;-78
2023/01/16 05:34:04;;;;;;;5.70;3.88;;;3.40;99.90;;;;;;5096746;28;20048;-80
2023/01/16 05:36:29;;;;;;;6.32;3.40;;;3.40;99.90;;;;;;5070473;28;20058;-79
2023/01/16 05:38:55;;;;;;;6.38;3.25;;;3.40;99.90;;;;;;5062910;28;20040;-78
2023/01/16 05:41:21;;;;;;;4.57;3.58;;;3.50;99.90;;;;;;5096317;28;20058;-77
2023/01/16 05:43:46;;;;;;;5.85;3.00;;;3.30;99.90;;;;;;5100420;28;20110;-78
2023/01/16 05:46:12;;;;;;;6.32;3.20;;;3.30;99.90;;;;;;5098632;28;20177;-77
2023/01/16 05:48:39;;;;;;;6.93;3.83;;;3.30;99.90;;;;;;5100702;28;20048;-77
2023/01/16 05:51:05;;;;;;;8.65;3.33;;;3.30;99.90;;;;;;5099076;28;20068;-78
2023/01/16 05:53:31;;;;;;;4.82;3.20;;;3.30;99.90;;;;;;5084308;28;20045;-78
2023/01/16 05:55:57;;;;;;;5.65;3.25;;;3.30;99.90;;;;;;5081324;28;20135;-77
2023/01/16 05:58:23;;;;;;;6.72;3.50;;;3.30;99.90;;;;;;5089590;28;20074;-77
2023/01/16 06:00:49;;;;;;;5.65;2.95;;;3.30;99.90;;;;;;5100019;28;20048;-77
2023/01/16 06:03:18;;;;;;;7.55;3.33;;;3.30;99.90;;;;;;5073368;28;20056;-77
2023/01/16 06:05:43;;;;;;;5.18;3.13;;;3.40;99.90;;;;;;5087713;28;20047;-77
2023/01/16 06:08:09;;;;;;;5.28;3.03;;;3.40;99.90;;;;;;5087273;28;20036;-77
2023/01/16 06:10:35;;;;;;;5.35;3.15;;;3.40;99.90;;;;;;5087673;28;20077;-77
2023/01/16 06:13:02;;;;;;;5.25;2.90;;;3.40;99.90;;;;;;5090591;28;20050;-76
2023/01/16 06:15:28;;;;;;;4.13;2.83;;;3.40;99.90;;;;;;5080004;28;20060;-77
2023/01/16 06:17:55;;;;;;;4.57;2.60;;;3.60;99.90;;;;;;5080004;28;20044;-77
2023/01/16 06:20:21;;;;;;;5.95;2.83;;;3.40;99.90;;;;;;5080152;28;20048;-77
2023/01/16 06:22:46;;;;;;;8.02;2.88;;;3.40;99.90;;;;;;5100258;28;20048;-77
2023/01/16 06:25:12;;;;;;;4.72;2.45;;;3.40;99.90;;;;;;5087114;28;20040;-77
2023/01/16 06:27:38;;;;;;;5.57;3.10;;;3.40;99.90;;;;;;5079396;28;20044;-77
2023/01/16 06:30:06;;;;;;;5.30;2.63;;;3.40;99.90;;;;;;5080200;28;20242;-76
2023/01/16 06:32:31;;;;;;;6.63;3.03;;;3.30;99.90;;;;;;5098327;28;20059;-77
2023/01/16 06:34:57;;;;;;;4.82;2.95;;;3.30;99.90;;;;;;5099732;28;20043;-77
2023/01/16 06:37:23;;;;;;;6.20;2.60;;;3.30;99.90;;;;;;5097626;28;20032;-77
2023/01/16 06:39:48;;;;;;;5.05;2.95;;;3.30;99.90;;;;;;5099195;28;20071;-77
2023/01/16 06:42:14;;;;;;;4.03;2.55;;;3.30;99.90;;;;;;5079185;28;20126;-77
2023/01/16 06:44:40;;;;;;;6.55;2.70;;;3.30;99.90;;;;;;5087122;28;20052;-77
2023/01/16 06:47:06;;;;;;;7.05;4.22;;;3.30;99.90;;;;;;5098853;28;20048;-77
2023/01/16 06:49:32;;;;;;;3.80;2.47;;;3.20;99.90;;;;;;5079799;28;20072;-77
2023/01/16 06:52:00;;;;;;;5.10;2.50;;;3.30;99.90;;;;;;5062134;28;20692;-77
2023/01/16 06:54:25;;;;;;;4.35;2.53;;;3.20;99.90;;;;;;5082492;28;20051;-77
2023/01/16 06:56:51;;;;;;;7.38;2.40;;;3.20;99.90;;;;;;5078724;28;20076;-76
2023/01/16 06:59:17;;;;;;;3.70;2.55;;;3.10;99.90;;;;;;5078208;28;20044;-77
2023/01/16 07:01:43;;;;;;;8.25;2.70;;;3.10;99.90;;;;;;5095512;28;20529;-77
2023/01/16 07:04:09;;;;;;;5.72;2.42;;;3.10;99.90;;;;;;5092481;28;20047;-77
2023/01/16 07:06:36;;;;;;;5.35;2.30;;;3.10;99.90;;;;;;5079611;28;20052;-77
2023/01/16 07:09:02;;;;;;;3.63;2.72;;;3.00;99.90;;;;;;5100035;28;20039;-77
2023/01/16 07:11:28;;;;;;;5.18;2.70;;;3.00;99.90;;;;;;5090279;28;20068;-77
2023/01/16 07:22:34;;;;;;;5.40;2.75;;;3.00;99.90;;;;;;5078840;28;20063;-77
2023/01/16 07:24:56;;;;;;;11.43;8.55;;;2.90;99.90;;;;;;5085177;28;20048;-77
2023/01/16 07:27:22;;;;;;;5.43;2.60;;;2.90;99.90;;;;;;5094842;28;20052;-77
2023/01/16 07:29:48;;;;;;;9.15;3.00;;;2.80;99.90;;;;;;5094995;28;20055;-76
2023/01/16 07:32:14;;;;;;;5.95;3.00;;;2.90;99.90;;;;;;5097763;28;20044;-77
2023/01/16 07:34:39;;;;;;;6.82;2.80;;;3.10;99.90;;;;;;5099391;28;20537;-77
2023/01/16 07:37:07;;;;;;;4.78;2.70;;;3.00;99.90;;;;;;5073324;28;20083;-76
2023/01/16 07:39:33;;;;;;;4.28;2.70;;;2.90;99.90;;;;;;5084968;28;20048;-77
2023/01/16 07:42:06;;;;;;;4.60;2.67;;;2.90;99.90;;;;;;5076387;28;20512;-77
2023/01/16 07:44:32;;;;;;;4.95;3.00;;;2.90;99.90;;;;;;5058228;28;20041;-77
2023/01/16 07:46:58;;;;;;;4.22;2.70;;;3.00;99.90;;;;;;5080274;28;20143;-77
2023/01/16 07:49:23;;;;;;;5.85;2.90;;;3.00;99.90;;;;;;5065679;28;20051;-77
2023/01/16 07:51:49;;;;;;;5.10;2.67;;;3.00;99.90;;;;;;5078084;28;20052;-76
2023/01/16 07:54:15;;;;;;;5.68;2.75;;;3.00;99.90;;;;;;5091511;28;20037;-77
2023/01/16 07:56:40;;;;;;;5.18;2.67;;;3.20;99.90;;;;;;5077293;28;20045;-77
2023/01/16 07:59:06;;;;;;;6.03;2.80;;;3.00;99.90;;;;;;5079172;28;20049;-77
2023/01/16 08:01:32;;;;;;;6.28;2.90;;;3.00;99.90;;;;;;5097902;28;20094;-77
2023/01/16 08:03:58;;;;;;;5.30;2.90;;;3.00;99.90;;;;;;5094658;28;20091;-77
2023/01/16 08:06:23;;;;;;;4.57;3.10;;;3.00;99.90;;;;;;5085183;28;20112;-77
2023/01/16 08:08:49;;;;;;;5.35;3.03;;;3.10;99.90;;;;;;5093201;28;20111;-77
2023/01/16 08:13:59;;;;;;;7.15;3.08;;;3.10;99.90;;;;;;5077876;28;20056;-77
2023/01/16 08:16:25;;;;;;;4.35;2.47;;;3.30;99.90;;;;;;5069463;28;20077;-77
2023/01/16 08:18:50;;;;;;;4.32;2.65;;;3.10;99.90;;;;;;5058252;28;20110;-77
2023/01/16 08:21:16;;;;;;;5.35;2.83;;;3.20;99.90;;;;;;5059314;28;20060;-77
2023/01/16 08:23:43;;;;;;;3.22;2.28;;;3.20;99.90;;;;;;5069430;28;20606;-78
2023/01/16 08:26:09;;;;;;;4.82;2.70;;;3.20;99.90;;;;;;5069811;28;20123;-77
2023/01/16 08:28:35;;;;;;;4.78;2.50;;;3.30;99.90;;;;;;5071932;28;20052;-78
2023/01/16 08:31:11;;;;;;;4.43;2.55;;;3.30;99.90;;;;;;5056784;28;20059;-77
2023/01/16 08:33:38;;;;;;;4.43;2.45;;;3.40;99.90;;;;;;5061247;28;20055;-77
2023/01/16 08:36:05;;;;;;;4.55;2.70;;;3.40;99.90;;;;;;5099250;28;20465;-75
2023/01/16 08:38:31;;;;;;;6.10;2.50;;;3.40;99.90;;;;;;5059702;28;20047;-75
2023/01/16 08:40:57;;;;;;;4.80;2.58;;;3.40;99.90;;;;;;5064928;28;20110;-75
2023/01/16 08:51:59;;;;;;;4.60;2.20;;;3.50;99.90;;;;;;5079337;28;20044;-75
2023/01/16 08:54:25;;;;;;;5.00;2.40;;;3.60;99.90;;;;;;5078764;28;20056;-75
2023/01/16 08:56:51;;;;;;;5.25;2.35;;;3.60;99.90;;;;;;5081113;28;20040;-75
2023/01/16 08:59:17;;;;;;;3.05;2.03;;;3.60;99.90;;;;;;5062737;28;20074;-76
2023/01/16 09:01:43;;;;;;;3.80;2.00;;;3.70;99.90;;;;;;5056142;28;20056;-75
2023/01/16 09:04:08;;;;;;;5.63;1.90;;;3.60;99.90;;;;;;5074419;28;20040;-75
2023/01/16 09:06:36;;;;;;;4.57;1.73;;;3.70;99.90;;;;;;5081228;28;20048;-75
2023/01/16 09:09:05;;;;;;;2.45;1.58;;;3.70;99.90;;;;;;5079941;28;20104;-73
2023/01/16 09:14:17;;;;;;;5.13;1.90;;;3.70;99.90;;;;;;5073049;28;20061;-75
2023/01/16 09:16:42;;;;;;;2.53;1.63;;;3.70;99.90;;;;;;5047398;28;20433;-75
2023/01/16 09:19:08;;;;;;;2.55;1.52;;;3.80;99.90;;;;;;5072543;28;20049;-75
2023/01/16 09:21:34;;;;;;;5.05;1.70;;;3.80;99.90;;;;;;5079890;28;20050;-75
2023/01/16 09:23:59;;;;;;;3.05;1.80;;;3.90;99.90;;;;;;5079539;28;20049;-75
2023/01/16 09:26:25;;;;;;;3.08;1.60;;;3.80;99.90;;;;;;5080782;28;20049;-75
2023/01/16 09:28:51;;;;;;;4.93;1.42;;;3.80;99.90;;;;;;5080159;28;20052;-75
2023/01/16 09:31:18;;;;;;;3.90;1.50;;;3.80;99.90;;;;;;5079928;28;20064;-76
2023/01/16 09:33:45;;;;;;;3.13;1.60;;;3.80;99.90;;;;;;5078969;28;20045;-76
2023/01/16 09:36:11;;;;;;;3.10;1.75;;;3.80;99.90;;;;;;5081543;28;20094;-76
2023/01/16 09:38:36;;;;;;;2.63;1.60;;;3.80;99.90;;;;;;5062940;28;20044;-76
2023/01/16 09:41:02;;;;;;;2.65;1.55;;;3.80;99.90;;;;;;5078537;28;20040;-76
2023/01/16 09:43:46;;;;;;;3.72;1.70;;;3.80;99.90;;;;;;5084864;28;20074;-75
2023/01/16 09:46:16;;;;;;;2.80;1.77;;;3.80;99.90;;;;;;5058660;28;20151;-76
2023/01/16 09:48:56;;;;;;;4.85;1.50;;;4.00;99.90;;;;;;5108263;28;20040;-77
2023/01/16 09:51:34;;;;;;;3.53;1.40;;;4.00;99.90;;;;;;5079802;28;20093;-77
2023/01/16 09:59:42;;;;;;;3.78;1.63;;;3.90;99.90;;;;;;5066993;28;20088;-76
2023/01/16 10:02:33;;;;;;;4.20;2.05;;;3.90;99.90;;;;;;5078890;28;20170;-78
2023/01/16 10:05:02;;;;;;;2.88;1.20;;;3.90;99.90;;;;;;5061040;28;20392;-76
2023/01/16 10:07:56;;;;;;;2.85;1.25;;;3.90;99.90;;;;;;5076702;28;20052;-77
2023/01/16 10:10:46;;;;;;;2.55;1.30;;;3.90;99.90;;;;;;5077688;28;20040;-76
2023/01/16 10:13:32;;;;;;;3.17;1.20;;;3.90;99.90;;;;;;5106180;28;20074;-78
2023/01/16 10:16:17;;;;;;;;;;;4.00;99.90;;;;;;5063497;28;20049;-78
2023/01/16 10:19:14;;;;;;;2.90;1.55;;;3.90;99.90;;;;;;5079313;28;19936;-78
2023/01/16 10:22:12;;;;;;;2.00;1.20;;;3.90;99.90;;;;;;5078075;28;20056;-78
2023/01/16 10:24:49;;;;;;;3.45;1.27;;;3.90;99.90;;;;;;5076774;28;20059;-77
2023/01/16 10:27:32;;;;;;;2.30;1.08;;;3.90;99.90;;;;;;5077725;28;20420;-77
2023/01/16 10:30:14;;;;;;;3.78;1.20;;;3.90;99.90;;;;;;5078683;28;20131;-77
2023/01/16 10:33:13;;;;;;;3.20;1.13;;;3.90;99.90;;;;;;5061607;28;20044;-76
2023/01/16 10:35:44;;;;;;;4.22;1.48;;;3.90;99.90;;;;;;5078716;28;20048;-77
2023/01/16 10:50:22;;;;;;;1.73;1.00;;;3.80;99.90;;;;;;5077142;28;20052;-76
2023/01/16 10:52:48;;;;;;;2.72;1.10;;;3.90;99.90;;;;;;5070204;28;20073;-76
2023/01/16 10:55:16;;;;;;;3.60;1.30;;;3.90;99.90;;;;;;5070021;28;20400;-76
2023/01/16 10:57:52;;;;;;;1.85;1.13;;;3.80;99.90;;;;;;5078745;28;20060;-78
2023/01/16 11:00:41;;;;;;;1.98;1.10;;;3.90;99.90;;;;;;5078267;28;20036;-76
2023/01/16 11:03:36;;;;;;;1.95;1.02;;;3.90;99.90;;;;;;5078086;28;20492;-80
2023/01/16 11:06:19;;;;;;;1.70;1.05;;;3.90;99.90;;;;;;5097692;28;20191;-77
2023/01/16 11:08:49;;;;;;;3.17;1.30;;;3.90;99.90;;;;;;5073783;28;20049;-77
2023/01/16 11:19:45;;;;;;;2.33;1.50;;;4.00;99.90;;;;;;5075019;28;20048;-77
2023/01/16 11:22:24;;;;;;;2.85;1.27;;;3.90;99.90;;;;;;5077897;28;20048;-77
2023/01/16 11:25:00;;;;;;;3.88;2.15;;;4.00;99.90;;;;;;5048348;28;20547;-78
2023/01/16 11:27:31;;;;;;;3.42;2.30;;;4.00;99.90;;;;;;5058289;28;20479;-78
2023/01/16 11:29:57;;;;;;;1.88;1.00;;;4.00;99.90;;;;;;5080393;28;20051;-77
2023/01/16 11:32:27;;;;;;;2.90;1.23;;;4.00;99.90;;;;;;5076429;28;20044;-78
2023/01/16 11:34:57;;;;;;;3.28;1.30;;;4.00;99.90;;;;;;5079350;28;20115;-78
2023/01/16 11:37:28;;;;;;;3.00;1.95;;;4.00;99.90;;;;;;5076763;28;20053;-80
2023/01/16 11:40:04;;;;;;;1.80;1.40;;;4.00;99.90;;;;;;5077516;28;20049;-79
2023/01/16 11:48:22;;;;;;;2.92;1.90;;;4.00;99.90;;;;;;5065646;28;20068;-80
2023/01/16 11:50:51;;;;;;;2.70;1.27;;;4.00;99.90;;;;;;5072595;28;20090;-77
2023/01/16 11:53:17;;;;;;;2.92;1.48;;;4.00;99.90;;;;;;5077404;28;20067;-78
2023/01/16 11:55:55;;;;;;;2.67;1.35;;;4.10;99.90;;;;;;5059782;28;20098;-78
2023/01/16 11:58:50;;;;;;;1.98;1.42;;;4.10;99.90;;;;;;5058989;28;20048;-78
2023/01/16 12:01:22;;;;;;;2.15;1.38;;;4.10;99.90;;;;;;5075532;28;20048;-78
2023/01/16 12:04:16;;;;;;;2.00;1.30;;;4.20;99.90;;;;;;5075678;28;20101;-78
2023/01/16 12:06:54;;;;;;;3.40;1.55;;;4.20;99.90;;;;;;5105064;28;20043;-78
2023/01/16 12:10:03;;;;;;;4.28;1.40;;;4.20;99.90;;;;;;5076676;28;20052;-77
2023/01/16 12:15:46;;;;;;;2.72;1.20;;;4.30;99.90;;;;;;5075533;28;20085;-77
2023/01/16 12:18:14;;;;;;;3.35;1.65;;;4.30;99.90;;;;;;5060598;28;20044;-77
2023/01/16 12:20:54;;;;;;;2.15;1.30;;;4.30;99.90;;;;;;5073136;28;20044;-79
2023/01/16 12:23:27;;;;;;;4.30;1.52;;;4.30;99.90;;;;;;5076083;28;20082;-78
2023/01/16 12:26:28;;;;;;;3.08;1.40;;;4.30;99.90;;;;;;5072835;28;20048;-79
2023/01/16 12:29:27;;;;;;;2.05;1.10;;;4.30;99.90;;;;;;5044097;28;20056;-79
2023/01/16 12:32:02;;;;;;;2.20;1.20;;;4.40;99.90;;;;;;5073740;28;20085;-78
2023/01/16 12:34:34;;;;;;;1.90;1.20;;;4.30;99.90;;;;;;5076633;28;20062;-79
2023/01/16 12:37:21;;;;;;;4.10;2.15;;;4.30;99.90;;;;;;5074873;28;20040;-78
2023/01/16 12:40:05;;;;;;;2.10;1.30;;;4.30;99.90;;;;;;5063094;28;20048;-77
2023/01/16 12:45:58;;;;;;;3.20;1.42;;;4.30;99.90;;;;;;5065133;28;20049;-79
2023/01/16 12:48:44;;;;;;;2.10;1.30;;;4.30;99.90;;;;;;5056659;28;20060;-78
2023/01/16 12:51:15;;;;;;;4.13;1.45;;;4.30;99.90;;;;;;5074430;28;20048;-77
2023/01/16 12:54:11;;;;;;;2.88;1.50;;;4.30;99.90;;;;;;5075424;28;20166;-77
2023/01/16 12:56:40;;;;;;;2.60;1.75;;;4.40;99.90;;;;;;5071965;28;20044;-78
2023/01/16 12:59:24;;;;;;;3.17;1.40;;;4.40;99.90;;;;;;5048700;28;20393;-79
2023/01/16 13:01:56;;;;;;;3.08;1.80;;;4.40;99.90;;;;;;5074931;28;20054;-79
2023/01/16 13:04:38;;;;;;;1.98;1.35;;;4.40;99.90;;;;;;5075141;28;20059;-78
2023/01/16 13:07:06;;;;;;;2.53;1.40;;;4.50;99.90;;;;;;5079481;28;20059;-78
2023/01/16 13:09:49;;;;;;;1.90;1.30;;;4.40;99.90;;;;;;5096871;28;20548;-78
2023/01/16 13:15:19;;;;;;;3.33;1.20;;;4.50;99.90;;;;;;5059129;28;20061;-79
2023/01/16 13:18:17;;;;;;;2.15;1.35;;;4.50;99.90;;;;;;5062484;28;20098;-79
2023/01/16 13:20:46;;;;;;;2.75;1.30;;;4.40;99.90;;;;;;5056904;28;20044;-78
2023/01/16 13:23:22;;;;;;;2.25;1.30;;;4.50;99.90;;;;;;5091250;28;20099;-77
2023/01/16 13:25:56;;;;;;;2.33;1.27;;;4.50;99.90;;;;;;5067079;28;20040;-79
2023/01/16 13:28:30;;;;;;;2.45;1.00;;;4.50;99.90;;;;;;5065682;28;20080;-79
2023/01/16 13:30:59;;;;;;;1.90;1.10;;;4.50;99.90;;;;;;5063795;28;20063;-78
2023/01/16 13:33:31;;;;;;;1.90;1.00;;;4.60;99.90;;;;;;5062513;28;20473;-78
2023/01/16 13:36:21;;;;;;;2.75;1.17;;;4.60;99.90;;;;;;5056077;28;20045;-78
2023/01/16 13:39:41;;;;;;;2.67;1.40;;;4.80;99.90;;;;;;5041709;28;20040;-77
2023/01/16 13:42:11;;;;;;;3.70;1.60;;;4.80;99.90;;;;;;5055416;28;20105;-78
2023/01/16 13:47:32;;;;;;;1.88;1.10;;;4.90;99.90;;;;;;5065726;28;20049;-77
2023/01/16 13:50:15;;;;;;;3.85;1.40;;;4.80;99.90;;;;;;5092239;28;20053;-80
2023/01/16 13:52:42;;;;;;;1.75;1.15;;;4.80;99.90;;;;;;5059271;28;20045;-78
2023/01/16 13:55:32;;;;;;;2.35;1.40;;;4.70;99.90;;;;;;5058964;28;20055;-79
2023/01/16 13:58:07;;;;;;;3.75;1.20;;;4.70;99.90;;;;;;5045257;28;20080;-79
2023/01/16 14:00:35;;;;;;;3.33;1.20;;;4.70;99.90;;;;;;5067280;28;20100;-77
2023/01/16 14:03:24;;;;;;;5.18;2.75;;;4.60;99.90;;;;;;5076088;28;20037;-79
2023/01/16 14:06:11;;;;;;;3.58;1.30;;;4.60;99.90;;;;;;5043280;28;20045;-79
2023/01/16 14:09:07;;;;;;;2.50;1.50;;;4.70;99.90;;;;;;5057068;28;20072;-79
2023/01/16 14:11:33;;;;;;;2.05;1.00;;;4.70;99.90;;;;;;5058113;28;20140;-80
2023/01/16 14:17:15;;;;;;;2.47;1.20;;;4.70;99.90;;;;;;5058074;28;20053;-80
2023/01/16 14:20:01;;;;;;;3.00;1.00;;;5.00;99.90;;;;;;5057922;28;20056;-80
2023/01/16 14:25:28;;;;;;;3.80;1.23;;;4.70;99.90;;;;;;5058480;28;20497;-76
2023/01/16 14:27:55;;;;;;;1.95;0.90;;;4.70;99.90;;;;;;5068911;28;20054;-80
2023/01/16 14:30:25;;;;;;;2.03;1.00;;;4.70;99.90;;;;;;5065015;28;20150;-77
2023/01/16 14:32:58;;;;;;;2.70;1.10;;;4.60;99.90;;;;;;5090520;28;20082;-77
2023/01/16 14:35:31;;;;;;;1.88;1.02;;;4.70;99.90;;;;;;5058919;28;20043;-80
2023/01/16 14:37:59;;;;;;;2.35;1.10;;;4.70;99.90;;;;;;5071260;28;20063;-79
2023/01/16 14:55:13;;;;;;;2.83;1.52;;;4.70;99.90;;;;;;5077639;28;20104;-79